Time;durP1;ratioP1;P1;durP2;ratioP2;P2;SDS_P1;SDS_P2;PMS_P1;PMS_P2;Temp;Humidity;BMP_temperature;BMP_pressure;BME280_temperature;BME280_humidity;BME280_pressure;Samples;Min_cycle;Max_cycle;Signal;HPM_P1;HPM_P2
2023/04/07 00:00:54;;;;;;;2.58;2.08;;;8.90;99.90;;;;;;5094693;28;20049;-70
2023/04/07 00:03:20;;;;;;;1.60;1.20;;;8.90;99.90;;;;;;5095292;28;20024;-71
2023/04/07 00:05:46;;;;;;;3.83;2.33;;;8.90;99.90;;;;;;5091065;28;20028;-70
2023/04/07 00:08:12;;;;;;;0.47;0.35;;;8.80;99.90;;;;;;5093317;28;20087;-70
2023/04/07 00:10:38;;;;;;;2.88;1.85;;;8.80;99.90;;;;;;5093783;28;20020;-71
2023/04/07 00:13:04;;;;;;;1.45;0.95;;;8.80;99.90;;;;;;5094952;28;20051;-70
2023/04/07 00:15:30;;;;;;;9.18;1.58;;;8.80;99.90;;;;;;5094551;28;20093;-71
2023/04/07 00:17:55;;;;;;;0.88;0.63;;;8.90;99.90;;;;;;5094528;28;20039;-71
2023/04/07 00:20:22;;;;;;;3.83;1.42;;;8.90;99.90;;;;;;5094749;28;20099;-70
2023/04/07 00:22:47;;;;;;;0.20;0.20;;;8.90;99.90;;;;;;5094687;28;20039;-71
2023/04/07 00:25:13;;;;;;;0.10;0.10;;;9.00;99.90;;;;;;5093249;28;20032;-71
2023/04/07 00:27:39;;;;;;;0.70;0.63;;;9.10;99.90;;;;;;5094691;28;20085;-71
2023/04/07 00:30:06;;;;;;;0.50;0.50;;;9.00;99.90;;;;;;5093941;28;20464;-71
2023/04/07 00:32:32;;;;;;;0.08;0.08;;;9.10;99.90;;;;;;5076486;28;20020;-71
2023/04/07 00:34:58;;;;;;;0.15;0.15;;;9.10;99.90;;;;;;5093748;28;20035;-72
2023/04/07 00:37:24;;;;;;;6.28;1.95;;;9.10;99.90;;;;;;5094160;28;20028;-71
2023/04/07 00:39:51;;;;;;;0.73;0.73;;;9.00;99.90;;;;;;5094580;28;20560;-71
2023/04/07 00:42:17;;;;;;;0.20;0.20;;;9.00;99.90;;;;;;5094127;28;20016;-71
2023/04/07 00:44:43;;;;;;;1.10;1.02;;;9.00;99.90;;;;;;5092831;28;20028;-71
2023/04/07 00:47:09;;;;;;;7.35;1.75;;;9.00;99.90;;;;;;5094217;28;20027;-70
2023/04/07 00:49:36;;;;;;;1.00;1.00;;;8.90;99.90;;;;;;5094206;28;20042;-71
2023/04/07 00:52:03;;;;;;;0.40;0.40;;;9.00;99.90;;;;;;5092903;28;20028;-71
2023/04/07 00:54:29;;;;;;;2.67;2.47;;;8.90;99.90;;;;;;5085580;28;20051;-71
2023/04/07 00:56:56;;;;;;;1.88;0.85;;;8.90;99.90;;;;;;5092154;28;20020;-71
2023/04/07 00:59:22;;;;;;;0.17;0.17;;;8.90;99.90;;;;;;5092522;28;20083;-71
2023/04/07 01:02:04;;;;;;;3.53;2.65;;;8.90;99.90;;;;;;5092573;28;20525;-71
2023/04/07 01:04:44;;;;;;;2.95;1.15;;;8.80;99.90;;;;;;5094132;28;20168;-71
2023/04/07 01:07:27;;;;;;;0.10;0.10;;;8.80;99.90;;;;;;5075818;28;20081;-71
2023/04/07 01:10:10;;;;;;;1.65;1.55;;;8.80;99.90;;;;;;5092500;28;20594;-71
2023/04/07 01:13:01;;;;;;;0.65;0.65;;;8.70;99.90;;;;;;5092041;28;20511;-71
2023/04/07 01:15:30;;;;;;;2.13;1.98;;;8.90;99.90;;;;;;5093500;28;20349;-71
2023/04/07 01:18:06;;;;;;;1.20;1.05;;;8.80;99.90;;;;;;5092298;28;20110;-72
2023/04/07 01:20:33;;;;;;;2.20;1.75;;;8.90;99.90;;;;;;5087728;28;20448;-70
2023/04/07 01:23:05;;;;;;;0.80;0.80;;;8.80;99.90;;;;;;5080073;28;20032;-71
2023/04/07 01:26:01;;;;;;;0.47;0.47;;;8.80;99.90;;;;;;5089844;28;20081;-71
2023/04/07 01:28:53;;;;;;;2.58;2.38;;;8.80;99.90;;;;;;5093555;28;20039;-71
2023/04/07 01:31:21;;;;;;;2.45;1.58;;;8.80;99.90;;;;;;5092110;28;20039;-71
2023/04/07 01:33:50;;;;;;;0.98;0.95;;;8.80;99.90;;;;;;5092187;28;20055;-71
2023/04/07 01:36:17;;;;;;;0.90;0.90;;;8.70;99.90;;;;;;5093243;28;20028;-71
2023/04/07 01:38:44;;;;;;;1.42;1.30;;;8.80;99.90;;;;;;5093225;28;20377;-71
2023/04/07 01:41:10;;;;;;;6.63;2.00;;;8.80;99.90;;;;;;5092968;28;20024;-71
2023/04/07 01:43:39;;;;;;;0.73;0.73;;;8.80;99.90;;;;;;5091877;28;20392;-71
2023/04/07 01:46:05;;;;;;;4.65;3.10;;;8.80;99.90;;;;;;5091714;28;20100;-71
2023/04/07 01:48:31;;;;;;;1.67;1.58;;;8.80;99.90;;;;;;5092945;28;20106;-71
2023/04/07 01:50:57;;;;;;;3.97;2.13;;;8.80;99.90;;;;;;5074890;28;20459;-71
2023/04/07 01:53:24;;;;;;;3.00;1.65;;;8.80;99.90;;;;;;5091860;28;20027;-71
2023/04/07 01:55:52;;;;;;;4.95;1.63;;;8.70;99.90;;;;;;5091508;28;20038;-72
2023/04/07 01:58:18;;;;;;;1.13;1.08;;;8.70;99.90;;;;;;5092864;28;20068;-71
2023/04/07 02:00:44;;;;;;;3.15;1.52;;;8.70;99.90;;;;;;5074857;28;20086;-71
2023/04/07 02:03:22;;;;;;;3.33;0.93;;;8.70;99.90;;;;;;5091434;28;20028;-70
2023/04/07 02:05:53;;;;;;;0.10;0.10;;;8.70;99.90;;;;;;5091761;28;20031;-71
2023/04/07 02:08:26;;;;;;;1.98;1.55;;;8.70;99.90;;;;;;5091151;28;20110;-71
2023/04/07 02:10:54;;;;;;;2.92;2.17;;;8.60;99.90;;;;;;5091472;28;20042;-71
2023/04/07 02:13:22;;;;;;;0.82;0.82;;;8.60;99.90;;;;;;5091558;28;20112;-72
2023/04/07 02:15:52;;;;;;;1.00;1.00;;;8.60;99.90;;;;;;5091725;28;20024;-72
2023/04/07 02:18:19;;;;;;;1.55;1.23;;;8.70;99.90;;;;;;5091364;28;20070;-71
2023/04/07 02:20:46;;;;;;;0.70;0.70;;;8.60;99.90;;;;;;5092763;28;20099;-72
2023/04/07 02:23:12;;;;;;;4.03;2.38;;;8.60;99.90;;;;;;5091464;28;20050;-72
2023/04/07 02:25:38;;;;;;;0.10;0.10;;;8.60;99.90;;;;;;5091308;28;20387;-72
2023/04/07 02:28:07;;;;;;;0.10;0.10;;;8.70;99.90;;;;;;5091501;28;20028;-71
2023/04/07 02:30:34;;;;;;;2.53;1.42;;;8.60;99.90;;;;;;5092556;28;20483;-71
2023/04/07 02:33:00;;;;;;;0.20;0.20;;;8.60;99.90;;;;;;5091515;28;20491;-71
2023/04/07 02:35:26;;;;;;;2.85;0.55;;;8.60;99.90;;;;;;5092577;28;20024;-71
2023/04/07 02:37:51;;;;;;;0.68;0.68;;;8.60;99.90;;;;;;5092360;28;20036;-71
2023/04/07 02:40:17;;;;;;;0.30;0.30;;;8.50;99.90;;;;;;5092013;28;20028;-71
2023/04/07 02:42:43;;;;;;;1.10;1.02;;;8.50;99.90;;;;;;5092422;28;20472;-71
2023/04/07 02:45:10;;;;;;;0.52;0.45;;;8.50;99.90;;;;;;5091498;28;20081;-70
2023/04/07 02:47:37;;;;;;;1.02;0.95;;;8.50;99.90;;;;;;5091355;28;20024;-70
2023/04/07 02:50:02;;;;;;;1.02;0.75;;;8.50;99.90;;;;;;5091105;28;20476;-71
2023/04/07 02:52:28;;;;;;;0.70;0.70;;;8.40;99.90;;;;;;5092490;28;20077;-71
2023/04/07 02:54:54;;;;;;;0.20;0.20;;;8.40;99.90;;;;;;5090735;28;20031;-71
2023/04/07 02:57:25;;;;;;;1.40;1.35;;;8.40;99.90;;;;;;5093571;28;20067;-71
2023/04/07 02:59:56;;;;;;;0.10;0.10;;;8.40;99.90;;;;;;5095000;28;20020;-72
2023/04/07 03:02:24;;;;;;;1.75;1.38;;;8.30;99.90;;;;;;5094876;28;20024;-71
2023/04/07 03:04:51;;;;;;;0.55;0.55;;;8.30;99.90;;;;;;5096282;28;20920;-70
2023/04/07 03:07:18;;;;;;;0.45;0.45;;;8.20;99.90;;;;;;5094957;28;20024;-70
2023/04/07 03:09:44;;;;;;;0.10;0.10;;;8.30;99.90;;;;;;5095736;28;20431;-70
2023/04/07 03:12:11;;;;;;;0.10;0.10;;;8.30;99.90;;;;;;5096080;28;20069;-71
2023/04/07 03:14:37;;;;;;;0.20;0.20;;;8.40;99.90;;;;;;5094816;28;20025;-71
2023/04/07 03:17:03;;;;;;;0.85;0.70;;;8.40;99.90;;;;;;5094867;28;20357;-71
2023/04/07 03:19:29;;;;;;;0.10;0.10;;;8.40;99.90;;;;;;5094717;28;20063;-71
2023/04/07 03:21:55;;;;;;;0.45;0.45;;;8.30;99.90;;;;;;5094307;28;20440;-71
2023/04/07 03:24:21;;;;;;;0.15;0.15;;;8.30;99.90;;;;;;5094550;28;20069;-71
2023/04/07 03:26:47;;;;;;;0.10;0.10;;;8.30;99.90;;;;;;5094437;28;20020;-70
2023/04/07 03:29:20;;;;;;;0.28;0.28;;;8.30;99.90;;;;;;5094499;28;20461;-71
2023/04/07 03:31:46;;;;;;;0.35;0.35;;;8.40;99.90;;;;;;5094524;28;20047;-71
2023/04/07 03:34:14;;;;;;;0.17;0.17;;;8.30;99.90;;;;;;5094278;28;20042;-72
2023/04/07 03:36:40;;;;;;;0.10;0.10;;;8.30;99.90;;;;;;5094183;28;20496;-71
2023/04/07 03:39:06;;;;;;;0.47;0.47;;;8.50;99.90;;;;;;5093906;28;20035;-71
2023/04/07 03:41:32;;;;;;;0.63;0.63;;;8.40;99.90;;;;;;5094422;28;20028;-71
2023/04/07 03:43:58;;;;;;;0.65;0.65;;;8.40;99.90;;;;;;5094183;28;20031;-71
2023/04/07 03:46:25;;;;;;;2.05;1.95;;;8.20;99.90;;;;;;5094285;28;20077;-71
2023/04/07 03:48:52;;;;;;;0.20;0.20;;;8.30;99.90;;;;;;5093643;28;20035;-71
2023/04/07 03:51:20;;;;;;;0.20;0.20;;;8.10;99.90;;;;;;5094954;28;20495;-71
2023/04/07 03:53:50;;;;;;;1.88;1.13;;;8.00;99.90;;;;;;5094056;28;20024;-71
2023/04/07 03:56:30;;;;;;;0.00;0.00;;;8.00;99.90;;;;;;5093911;28;20024;-71
2023/04/07 03:58:57;;;;;;;0.15;0.15;;;7.90;99.90;;;;;;5093835;28;20060;-71
2023/04/07 04:01:28;;;;;;;0.10;0.10;;;7.90;99.90;;;;;;5093445;28;20066;-71
2023/04/07 04:03:55;;;;;;;2.35;1.48;;;7.90;99.90;;;;;;5093911;28;20115;-71
2023/04/07 04:06:23;;;;;;;0.10;0.10;;;7.90;99.90;;;;;;5093133;28;20023;-71
2023/04/07 04:08:52;;;;;;;0.47;0.47;;;7.80;99.90;;;;;;5092328;28;20115;-71
2023/04/07 04:11:19;;;;;;;0.55;0.55;;;7.80;99.90;;;;;;5093366;28;20063;-71
2023/04/07 04:13:53;;;;;;;0.25;0.25;;;7.60;99.90;;;;;;5093537;28;20021;-71
2023/04/07 04:16:20;;;;;;;0.70;0.70;;;7.60;99.90;;;;;;5094685;28;20093;-71
2023/04/07 04:18:47;;;;;;;0.63;0.63;;;7.50;99.90;;;;;;5093510;28;20040;-71
2023/04/07 04:21:14;;;;;;;0.50;0.50;;;7.50;99.90;;;;;;5093126;28;20020;-72
2023/04/07 04:23:42;;;;;;;0.20;0.20;;;7.50;99.90;;;;;;5093282;28;20035;-71
2023/04/07 04:26:08;;;;;;;0.30;0.30;;;7.40;99.90;;;;;;5093186;28;20028;-71
2023/04/07 04:28:35;;;;;;;0.15;0.15;;;7.40;99.90;;;;;;5093134;28;20404;-71
2023/04/07 04:31:03;;;;;;;0.20;0.20;;;7.40;99.90;;;;;;5076547;28;20031;-71
2023/04/07 04:33:33;;;;;;;1.98;1.88;;;7.50;99.90;;;;;;5093201;28;20036;-71
2023/04/07 04:35:59;;;;;;;0.10;0.10;;;7.50;99.90;;;;;;5094230;28;20130;-71
2023/04/07 04:38:26;;;;;;;2.40;0.73;;;7.60;99.90;;;;;;5092677;28;20047;-72
2023/04/07 04:40:57;;;;;;;0.10;0.10;;;7.60;99.90;;;;;;5068328;28;20392;-71
2023/04/07 04:43:27;;;;;;;0.15;0.15;;;7.50;99.90;;;;;;5093406;28;20407;-71
2023/04/07 04:45:54;;;;;;;0.20;0.20;;;7.50;99.90;;;;;;5092794;28;20020;-71
2023/04/07 04:48:23;;;;;;;0.15;0.15;;;7.40;99.90;;;;;;5092914;28;20043;-72
2023/04/07 04:50:49;;;;;;;0.75;0.75;;;7.40;99.90;;;;;;5092545;28;20036;-71
2023/04/07 04:53:15;;;;;;;1.10;0.80;;;7.40;99.90;;;;;;5093078;28;20102;-71
2023/04/07 04:55:50;;;;;;;0.10;0.10;;;7.40;99.90;;;;;;5076870;28;20111;-71
2023/04/07 04:58:20;;;;;;;0.03;0.03;;;7.60;99.90;;;;;;5093144;28;20060;-71
2023/04/07 05:00:56;;;;;;;0.10;0.10;;;7.70;99.90;;;;;;5092786;28;20099;-71
2023/04/07 05:03:25;;;;;;;0.10;0.10;;;7.70;99.90;;;;;;5092344;28;20107;-71
2023/04/07 05:05:51;;;;;;;0.05;0.05;;;7.60;99.90;;;;;;5092851;28;20460;-71
2023/04/07 05:08:21;;;;;;;0.35;0.35;;;7.60;99.90;;;;;;5092380;28;20392;-71
2023/04/07 05:10:47;;;;;;;1.52;1.48;;;7.70;99.90;;;;;;5092703;28;20027;-71
2023/04/07 05:13:16;;;;;;;1.27;1.27;;;7.80;99.90;;;;;;5092297;28;20027;-71
2023/04/07 05:15:42;;;;;;;1.30;1.27;;;7.80;99.90;;;;;;5092334;28;20024;-71
2023/04/07 05:18:10;;;;;;;1.05;1.05;;;7.80;99.90;;;;;;5091732;28;20039;-71
2023/04/07 05:20:36;;;;;;;0.10;0.10;;;7.80;99.90;;;;;;5091874;28;20472;-70
2023/04/07 05:23:02;;;;;;;0.17;0.17;;;7.90;99.90;;;;;;5092131;28;20059;-70
2023/04/07 05:25:32;;;;;;;0.50;0.50;;;8.00;99.90;;;;;;5064143;28;20047;-71
2023/04/07 05:28:01;;;;;;;6.30;2.25;;;8.10;99.90;;;;;;5075550;28;20365;-71
2023/04/07 05:30:27;;;;;;;8.93;1.27;;;8.10;99.90;;;;;;5091697;28;20020;-71
2023/04/07 05:32:54;;;;;;;0.10;0.10;;;8.20;99.90;;;;;;5091688;28;20031;-70
2023/04/07 05:35:35;;;;;;;0.30;0.30;;;8.30;99.90;;;;;;5092052;28;20024;-71
2023/04/07 05:38:00;;;;;;;1.13;1.10;;;8.40;99.90;;;;;;5093047;28;20059;-70
2023/04/07 05:40:27;;;;;;;0.20;0.20;;;8.40;99.90;;;;;;5091777;28;20377;-70
2023/04/07 05:42:55;;;;;;;0.10;0.10;;;8.60;99.90;;;;;;5092026;28;20573;-70
2023/04/07 05:45:21;;;;;;;0.10;0.10;;;8.60;99.90;;;;;;5091851;28;20476;-71
2023/04/07 05:47:49;;;;;;;0.10;0.10;;;8.70;99.90;;;;;;5091426;28;20596;-70
2023/04/07 05:50:19;;;;;;;0.10;0.10;;;8.70;99.90;;;;;;5091765;28;20024;-70
2023/04/07 05:52:46;;;;;;;0.10;0.10;;;8.70;99.90;;;;;;5091910;28;20070;-70
2023/04/07 05:55:20;;;;;;;0.10;0.10;;;8.80;99.90;;;;;;5091996;28;20584;-71
2023/04/07 05:57:48;;;;;;;0.10;0.10;;;8.70;99.90;;;;;;5080211;28;20035;-70
2023/04/07 06:00:16;;;;;;;1.50;1.40;;;9.00;99.90;;;;;;5091714;28;20031;-70
2023/04/07 06:02:47;;;;;;;0.10;0.10;;;9.00;99.90;;;;;;5091276;28;20026;-70
2023/04/07 06:05:17;;;;;;;3.28;2.38;;;9.10;99.90;;;;;;5091890;28;20107;-71
2023/04/07 06:07:44;;;;;;;0.65;0.65;;;9.10;99.90;;;;;;5091621;28;20032;-70
2023/04/07 06:10:10;;;;;;;0.10;0.10;;;9.00;99.90;;;;;;5092940;28;20028;-70
2023/04/07 06:12:36;;;;;;;0.13;0.13;;;9.10;99.90;;;;;;5091412;28;20064;-72
2023/04/07 06:15:01;;;;;;;0.60;0.60;;;9.10;99.90;;;;;;5091562;28;20013;-70
2023/04/07 06:17:27;;;;;;;0.50;0.50;;;9.20;99.90;;;;;;5092509;28;20036;-70
2023/04/07 06:19:53;;;;;;;0.10;0.10;;;9.10;99.90;;;;;;5080553;28;20119;-70
2023/04/07 06:22:18;;;;;;;0.30;0.30;;;9.40;99.90;;;;;;5079900;28;20377;-73
2023/04/07 06:24:44;;;;;;;3.78;0.60;;;9.40;99.90;;;;;;5076183;28;20033;-74
2023/04/07 06:27:10;;;;;;;0.80;0.80;;;9.30;99.90;;;;;;5070207;28;20029;-72
2023/04/07 06:29:36;;;;;;;0.30;0.20;;;9.10;99.90;;;;;;5080724;28;20039;-71
2023/04/07 06:32:04;;;;;;;1.95;0.40;;;9.10;99.90;;;;;;5051725;28;20116;-71
2023/04/07 06:34:30;;;;;;;0.10;0.10;;;8.90;99.90;;;;;;5066687;28;20021;-72
2023/04/07 06:36:56;;;;;;;0.28;0.28;;;8.90;99.90;;;;;;5074849;28;20028;-73
2023/04/07 06:39:22;;;;;;;0.90;0.80;;;8.90;99.90;;;;;;5076285;28;20040;-73
2023/04/07 06:41:47;;;;;;;0.10;0.10;;;8.90;99.90;;;;;;5071274;28;20083;-72
2023/04/07 06:44:13;;;;;;;4.50;0.55;;;9.00;99.90;;;;;;5069379;28;20033;-74
2023/04/07 06:46:40;;;;;;;0.10;0.10;;;9.10;99.90;;;;;;5081268;28;20029;-74
2023/04/07 06:49:06;;;;;;;0.43;0.30;;;9.20;99.90;;;;;;5062200;28;20469;-73
2023/04/07 06:51:32;;;;;;;0.65;0.65;;;9.30;99.90;;;;;;5064841;28;20040;-72
2023/04/07 06:53:57;;;;;;;0.10;0.10;;;9.40;99.90;;;;;;5071618;28;20021;-73
2023/04/07 06:56:23;;;;;;;0.30;0.30;;;9.50;99.90;;;;;;5061029;28;20029;-73
2023/04/07 06:58:49;;;;;;;0.40;0.40;;;9.40;99.90;;;;;;5065530;28;20395;-71
2023/04/07 07:01:15;;;;;;;0.10;0.10;;;9.40;99.90;;;;;;5074904;28;20089;-72
2023/04/07 07:03:41;;;;;;;0.10;0.10;;;9.50;99.90;;;;;;5068635;28;20029;-72
2023/04/07 07:06:07;;;;;;;0.10;0.10;;;9.70;99.90;;;;;;5064506;28;20112;-71
2023/04/07 07:08:33;;;;;;;0.20;0.20;;;9.60;99.90;;;;;;5066286;28;20064;-73
2023/04/07 07:10:58;;;;;;;0.13;0.13;;;9.60;99.90;;;;;;5066698;28;20037;-73
2023/04/07 07:13:25;;;;;;;0.15;0.15;;;9.50;99.90;;;;;;5064425;28;20036;-73
2023/04/07 07:15:51;;;;;;;0.10;0.10;;;9.30;99.90;;;;;;5067288;28;20090;-73
2023/04/07 07:18:18;;;;;;;0.20;0.20;;;9.30;99.90;;;;;;5064754;28;20037;-73
2023/04/07 07:20:44;;;;;;;0.10;0.10;;;9.50;99.90;;;;;;5061017;28;20020;-73
2023/04/07 07:23:10;;;;;;;0.35;0.25;;;9.40;99.90;;;;;;5058299;28;20025;-72
2023/04/07 07:25:36;;;;;;;0.10;0.10;;;9.40;99.90;;;;;;5066744;28;20033;-73
2023/04/07 07:28:01;;;;;;;0.70;0.70;;;9.50;99.90;;;;;;5059143;28;20025;-73
2023/04/07 07:30:27;;;;;;;0.85;0.45;;;9.70;99.90;;;;;;5064960;28;20389;-70
2023/04/07 07:32:54;;;;;;;0.20;0.20;;;9.60;99.90;;;;;;5065953;28;20031;-73
2023/04/07 07:35:20;;;;;;;1.15;0.22;;;9.50;99.90;;;;;;5070597;28;20114;-72
2023/04/07 07:37:47;;;;;;;0.30;0.30;;;9.60;99.90;;;;;;5055278;28;20039;-70
2023/04/07 07:40:13;;;;;;;0.57;0.55;;;9.60;99.90;;;;;;5061275;28;20070;-73
2023/04/07 07:42:39;;;;;;;0.10;0.10;;;9.70;99.90;;;;;;5066123;28;20032;-70
2023/04/07 07:45:05;;;;;;;0.10;0.10;;;9.60;99.90;;;;;;5066007;28;20032;-69
2023/04/07 07:47:31;;;;;;;0.10;0.10;;;9.80;99.90;;;;;;5061272;28;20169;-70
2023/04/07 07:49:57;;;;;;;4.10;1.45;;;9.80;99.90;;;;;;5066721;28;20111;-69
2023/04/07 07:52:23;;;;;;;0.10;0.10;;;9.70;99.90;;;;;;5057084;28;20033;-69
2023/04/07 07:54:50;;;;;;;5.93;0.45;;;9.80;99.90;;;;;;5061733;28;20033;-70
2023/04/07 07:57:16;;;;;;;0.17;0.17;;;9.70;99.90;;;;;;5069438;28;20178;-68
2023/04/07 07:59:42;;;;;;;0.30;0.30;;;9.80;99.90;;;;;;5058573;28;20492;-68
2023/04/07 08:02:09;;;;;;;0.10;0.10;;;9.80;99.90;;;;;;5070181;28;20033;-68
2023/04/07 08:04:36;;;;;;;0.82;0.82;;;10.00;99.90;;;;;;5066673;28;20178;-68
2023/04/07 08:07:02;;;;;;;0.60;0.60;;;10.00;99.90;;;;;;5066411;28;20020;-68
2023/04/07 08:09:28;;;;;;;2.42;0.75;;;10.00;99.90;;;;;;5062983;28;20056;-71
2023/04/07 08:11:54;;;;;;;0.20;0.20;;;10.10;99.90;;;;;;5057516;28;20106;-70
2023/04/07 08:14:19;;;;;;;0.10;0.10;;;10.40;99.90;;;;;;5061632;28;20020;-73
2023/04/07 08:16:45;;;;;;;0.10;0.10;;;10.50;99.90;;;;;;5069624;28;20461;-74
2023/04/07 08:19:12;;;;;;;0.10;0.10;;;10.70;99.90;;;;;;5066376;28;20048;-72
2023/04/07 08:21:38;;;;;;;3.53;0.40;;;11.00;99.90;;;;;;5056416;28;20119;-73
2023/04/07 08:24:05;;;;;;;0.10;0.10;;;11.40;99.90;;;;;;5060393;28;20597;-71
2023/04/07 08:26:31;;;;;;;0.10;0.10;;;11.50;99.90;;;;;;5062400;28;20065;-71
2023/04/07 08:28:57;;;;;;;0.52;0.52;;;11.50;99.90;;;;;;5062705;28;20046;-74
2023/04/07 08:31:23;;;;;;;0.10;0.10;;;11.30;99.90;;;;;;5066651;28;20070;-73
2023/04/07 08:33:52;;;;;;;0.20;0.20;;;11.40;99.90;;;;;;5079074;28;20041;-72
2023/04/07 08:36:19;;;;;;;0.75;0.25;;;11.60;99.90;;;;;;5052585;28;20025;-73
2023/04/07 08:38:45;;;;;;;0.30;0.30;;;11.90;99.90;;;;;;5060726;28;20379;-71
2023/04/07 08:41:13;;;;;;;0.77;0.77;;;11.80;99.90;;;;;;5065665;28;20462;-71
2023/04/07 08:43:42;;;;;;;1.20;0.57;;;11.80;99.90;;;;;;5062179;28;20036;-73
2023/04/07 08:46:09;;;;;;;8.25;2.20;;;11.70;99.90;;;;;;5064923;28;20858;-73
2023/04/07 08:48:37;;;;;;;0.20;0.20;;;11.40;99.90;;;;;;5067095;28;20458;-72
2023/04/07 08:51:08;;;;;;;0.40;0.40;;;10.90;99.90;;;;;;5068009;28;20033;-71
2023/04/07 08:53:49;;;;;;;0.10;0.10;;;11.00;99.90;;;;;;5060378;28;20063;-72
2023/04/07 08:56:20;;;;;;;0.10;0.10;;;11.20;99.90;;;;;;5066222;28;20029;-72
2023/04/07 08:58:47;;;;;;;0.13;0.13;;;11.30;99.90;;;;;;5063751;28;20052;-73
2023/04/07 09:01:14;;;;;;;6.75;0.85;;;11.20;99.90;;;;;;5060346;28;20435;-72
2023/04/07 09:03:43;;;;;;;0.30;0.30;;;11.20;99.90;;;;;;5053936;28;20032;-70
2023/04/07 09:06:10;;;;;;;5.53;0.55;;;11.10;99.90;;;;;;5054593;28;20009;-72
2023/04/07 09:08:36;;;;;;;0.10;0.10;;;11.30;99.90;;;;;;5070568;28;20113;-72
2023/04/07 09:11:02;;;;;;;0.00;0.00;;;11.30;99.90;;;;;;5064557;28;20044;-72
2023/04/07 09:13:27;;;;;;;0.10;0.10;;;11.30;99.90;;;;;;5065206;28;20024;-72
2023/04/07 09:15:54;;;;;;;5.53;0.65;;;11.60;99.90;;;;;;5059734;28;20385;-72
2023/04/07 09:18:20;;;;;;;0.10;0.10;;;11.70;99.90;;;;;;5062323;28;20052;-70
2023/04/07 09:21:00;;;;;;;0.10;0.10;;;11.90;99.90;;;;;;5056253;28;20029;-72
2023/04/07 09:23:32;;;;;;;0.40;0.40;;;12.00;99.90;;;;;;5037354;28;20028;-72
2023/04/07 09:26:00;;;;;;;0.13;0.13;;;11.80;99.90;;;;;;5061769;28;20025;-72
2023/04/07 09:28:39;;;;;;;0.20;0.20;;;11.50;99.90;;;;;;5055822;28;20492;-73
2023/04/07 09:31:05;;;;;;;0.52;0.52;;;11.70;99.90;;;;;;5066601;28;20420;-71
2023/04/07 09:33:32;;;;;;;0.32;0.30;;;11.50;99.90;;;;;;5057037;28;20024;-73
2023/04/07 09:35:58;;;;;;;2.05;0.60;;;11.40;99.90;;;;;;5057313;28;20025;-73
2023/04/07 09:38:32;;;;;;;0.47;0.30;;;11.60;99.90;;;;;;5062561;28;20074;-73
2023/04/07 09:41:15;;;;;;;0.32;0.32;;;11.80;99.90;;;;;;5061273;28;20086;-72
2023/04/07 09:43:43;;;;;;;5.72;0.77;;;12.10;99.90;;;;;;5060264;28;20029;-73
2023/04/07 09:46:17;;;;;;;0.30;0.30;;;11.90;99.90;;;;;;5061476;28;20021;-72
2023/04/07 09:48:45;;;;;;;0.50;0.50;;;11.90;99.90;;;;;;5060725;28;20473;-72
2023/04/07 09:51:13;;;;;;;6.55;0.75;;;12.00;99.90;;;;;;5054323;28;20044;-71
2023/04/07 09:53:51;;;;;;;0.57;0.38;;;11.80;99.90;;;;;;5057188;28;20021;-73
2023/04/07 09:56:21;;;;;;;0.20;0.20;;;11.50;99.90;;;;;;5058913;28;20029;-72
2023/04/07 09:58:50;;;;;;;0.10;0.10;;;11.20;99.90;;;;;;5058920;28;20039;-71
2023/04/07 10:01:16;;;;;;;1.30;1.20;;;11.00;99.90;;;;;;5056677;28;20035;-72
2023/04/07 10:03:43;;;;;;;0.57;0.57;;;10.80;99.90;;;;;;5063305;28;20086;-73
2023/04/07 10:06:10;;;;;;;5.88;0.55;;;10.60;99.90;;;;;;5056627;28;20029;-72
2023/04/07 10:08:40;;;;;;;0.73;0.73;;;10.70;99.90;;;;;;5056727;28;20090;-67
2023/04/07 10:11:06;;;;;;;0.10;0.10;;;10.80;99.90;;;;;;5059235;28;20025;-71
2023/04/07 10:13:34;;;;;;;0.93;0.90;;;11.20;99.90;;;;;;5063881;28;20123;-73
2023/04/07 10:16:03;;;;;;;1.17;0.47;;;11.20;99.90;;;;;;5040242;28;20028;-71
2023/04/07 10:18:33;;;;;;;0.10;0.10;;;11.20;99.90;;;;;;5059741;28;20044;-72
2023/04/07 10:21:04;;;;;;;0.20;0.20;;;11.20;99.90;;;;;;5058691;28;20031;-71
2023/04/07 10:23:35;;;;;;;0.13;0.13;;;11.40;99.90;;;;;;5057399;28;20036;-70
2023/04/07 10:26:02;;;;;;;;;;;11.70;99.90;;;;;;5062939;28;20515;-72
2023/04/07 10:28:30;;;;;;;0.10;0.10;;;11.80;99.90;;;;;;5056829;28;19974;-71
2023/04/07 10:30:57;;;;;;;0.15;0.15;;;12.10;99.90;;;;;;5072214;28;20115;-72
2023/04/07 10:33:46;;;;;;;0.30;0.30;;;12.10;99.90;;;;;;5078917;28;20020;-72
2023/04/07 10:36:12;;;;;;;0.10;0.10;;;11.70;99.90;;;;;;5072686;28;20032;-72
2023/04/07 10:38:38;;;;;;;4.35;1.33;;;11.80;99.90;;;;;;5073556;28;20107;-71
2023/04/07 10:41:38;;;;;;;0.10;0.10;;;11.70;99.90;;;;;;5086564;28;20501;-72
2023/04/07 10:44:39;;;;;;;0.60;0.60;;;11.40;99.90;;;;;;5076827;28;20116;-67
2023/04/07 10:47:05;;;;;;;1.65;0.40;;;11.20;99.90;;;;;;5056125;28;20074;-66
2023/04/07 10:49:35;;;;;;;0.10;0.10;;;11.30;99.90;;;;;;5071981;28;20033;-67
2023/04/07 10:52:13;;;;;;;0.57;0.57;;;11.60;99.90;;;;;;5069792;28;20028;-67
2023/04/07 10:54:40;;;;;;;0.20;0.20;;;11.70;99.90;;;;;;5071715;28;20111;-67
2023/04/07 10:57:14;;;;;;;1.33;0.63;;;11.40;99.90;;;;;;5072067;28;20098;-68
2023/04/07 11:00:09;;;;;;;0.28;0.28;;;11.20;99.90;;;;;;5071660;28;20032;-67
2023/04/07 11:02:38;;;;;;;0.30;0.30;;;11.40;99.90;;;;;;5081884;28;20044;-67
2023/04/07 11:05:05;;;;;;;3.75;2.03;;;11.50;99.90;;;;;;5087010;28;20451;-68
2023/04/07 11:07:46;;;;;;;1.85;0.88;;;11.40;99.90;;;;;;5071328;28;20036;-67
2023/04/07 11:10:12;;;;;;;0.10;0.10;;;11.50;99.90;;;;;;5069950;28;20499;-71
2023/04/07 11:12:38;;;;;;;2.75;0.75;;;11.80;99.90;;;;;;5071973;28;20114;-67
2023/04/07 11:15:21;;;;;;;5.00;1.88;;;11.80;99.90;;;;;;5071565;28;20107;-67
2023/04/07 11:18:05;;;;;;;0.10;0.10;;;11.50;99.90;;;;;;5071577;28;20040;-66
2023/04/07 11:20:45;;;;;;;6.75;0.80;;;11.80;99.90;;;;;;5075193;28;20028;-68
2023/04/07 11:23:12;;;;;;;1.08;0.47;;;12.40;99.90;;;;;;5074198;28;20392;-66
2023/04/07 11:25:40;;;;;;;0.10;0.10;;;12.80;99.90;;;;;;5074078;28;20028;-69
2023/04/07 11:28:09;;;;;;;1.10;1.00;;;13.60;99.90;;;;;;5075428;28;20032;-69
2023/04/07 11:30:35;;;;;;;3.03;0.35;;;13.90;99.90;;;;;;5075126;28;20020;-69
2023/04/07 11:33:01;;;;;;;0.47;0.47;;;14.30;99.90;;;;;;5075587;28;20029;-69
2023/04/07 11:35:27;;;;;;;3.20;0.52;;;14.60;99.90;;;;;;5075020;28;20024;-69
2023/04/07 11:38:00;;;;;;;2.08;0.85;;;14.60;99.90;;;;;;5075176;28;20052;-69
2023/04/07 11:40:36;;;;;;;1.75;0.95;;;13.80;99.90;;;;;;5075152;28;20039;-68
2023/04/07 11:43:14;;;;;;;0.00;0.00;;;13.50;99.90;;;;;;5075395;28;20098;-69
2023/04/07 11:45:40;;;;;;;0.30;0.30;;;13.70;99.90;;;;;;5073873;28;20047;-69
2023/04/07 11:48:29;;;;;;;7.38;0.57;;;13.00;99.90;;;;;;5075085;28;20520;-71
2023/04/07 11:50:54;;;;;;;0.10;0.10;;;12.20;99.90;;;;;;5074663;28;20099;-69
2023/04/07 11:53:36;;;;;;;0.50;0.50;;;12.20;99.90;;;;;;5075390;28;20119;-69
2023/04/07 11:56:15;;;;;;;0.20;0.20;;;12.60;99.90;;;;;;5074896;28;20472;-69
2023/04/07 11:58:52;;;;;;;1.00;0.45;;;12.80;99.90;;;;;;5074924;28;20049;-69
2023/04/07 12:01:19;;;;;;;0.20;0.20;;;12.50;99.90;;;;;;5079225;28;20032;-69
2023/04/07 12:04:00;;;;;;;2.92;0.50;;;12.30;99.90;;;;;;5095491;28;20035;-69
2023/04/07 12:06:33;;;;;;;8.77;0.45;;;12.40;99.90;;;;;;5095096;28;20112;-69
2023/04/07 12:09:02;;;;;;;2.70;1.23;;;12.30;99.90;;;;;;5093811;28;20464;-69
2023/04/07 12:11:29;;;;;;;0.70;0.70;;;12.60;99.90;;;;;;5093781;28;20058;-69
2023/04/07 12:13:55;;;;;;;0.30;0.30;;;12.90;99.90;;;;;;5095054;28;20077;-69
2023/04/07 12:16:21;;;;;;;0.28;0.28;;;12.70;99.90;;;;;;5093452;28;20036;-69
2023/04/07 12:18:48;;;;;;;0.25;0.20;;;12.70;99.90;;;;;;5094827;28;20043;-69
2023/04/07 12:21:14;;;;;;;0.90;0.30;;;12.10;99.90;;;;;;5094694;28;20016;-69
2023/04/07 12:23:40;;;;;;;0.40;0.40;;;11.80;99.90;;;;;;5094824;28;20031;-69
2023/04/07 12:26:06;;;;;;;5.10;0.43;;;11.80;99.90;;;;;;5094783;28;20028;-69
2023/04/07 12:28:32;;;;;;;0.20;0.20;;;12.00;99.90;;;;;;5094379;28;20040;-69
2023/04/07 12:30:58;;;;;;;0.63;0.63;;;12.50;99.90;;;;;;5075449;28;20028;-69
2023/04/07 12:33:24;;;;;;;3.92;0.63;;;12.60;99.90;;;;;;5087952;28;20101;-69
2023/04/07 12:35:50;;;;;;;7.90;0.30;;;12.50;99.90;;;;;;5093222;28;20032;-69
2023/04/07 12:38:16;;;;;;;0.00;0.00;;;12.30;99.90;;;;;;5094310;28;20040;-69
2023/04/07 12:40:42;;;;;;;0.73;0.15;;;12.40;99.90;;;;;;5094273;28;20499;-69
2023/04/07 12:43:08;;;;;;;0.82;0.50;;;12.20;99.90;;;;;;5094510;28;20372;-69
2023/04/07 12:45:34;;;;;;;15.13;0.55;;;12.40;99.90;;;;;;5093070;28;20031;-69
2023/04/07 12:48:00;;;;;;;0.20;0.20;;;12.40;99.90;;;;;;5075878;28;20464;-69
2023/04/07 12:50:26;;;;;;;0.10;0.10;;;12.50;99.90;;;;;;5094219;28;20077;-69
2023/04/07 12:52:53;;;;;;;0.10;0.10;;;12.30;99.90;;;;;;5092851;28;20024;-69
2023/04/07 12:55:19;;;;;;;0.00;0.00;;;12.30;99.90;;;;;;5094374;28;20032;-69
2023/04/07 12:57:46;;;;;;;2.05;1.40;;;12.60;99.90;;;;;;5093968;28;20028;-69
2023/04/07 13:00:12;;;;;;;0.30;0.25;;;12.70;99.90;;;;;;5094051;28;20044;-69